sensor_id;sensor_type;location;lat;lon;timestamp;P1;durP1;ratioP1;P2;durP2;ratioP2
60032;SDS011;45905;50.570;10.428;2022-08-05T00:02:51;4.20;;;2.20;;
60032;SDS011;45905;50.570;10.428;2022-08-05T00:06:01;5.20;;;2.63;;
60032;SDS011;45905;50.570;10.428;2022-08-05T00:09:08;4.20;;;2.40;;
60032;SDS011;45905;50.570;10.428;2022-08-05T00:11:50;3.43;;;1.90;;
60032;SDS011;45905;50.570;10.428;2022-08-05T00:14:45;3.73;;;3.43;;
60032;SDS011;45905;50.570;10.428;2022-08-05T00:18:16;3.40;;;2.43;;
60032;SDS011;45905;50.570;10.428;2022-08-05T00:20:52;3.93;;;2.70;;
60032;SDS011;45905;50.570;10.428;2022-08-05T00:23:40;3.90;;;2.50;;
60032;SDS011;45905;50.570;10.428;2022-08-05T00:26:42;3.53;;;2.30;;
60032;SDS011;45905;50.570;10.428;2022-08-05T00:29:42;7.17;;;2.50;;
60032;SDS011;45905;50.570;10.428;2022-08-05T00:32:25;4.30;;;2.10;;
60032;SDS011;45905;50.570;10.428;2022-08-05T00:35:15;2.60;;;2.40;;
60032;SDS011;45905;50.570;10.428;2022-08-05T00:38:04;6.27;;;2.20;;
60032;SDS011;45905;50.570;10.428;2022-08-05T00:41:00;5.70;;;2.40;;
60032;SDS011;45905;50.570;10.428;2022-08-05T00:44:14;2.77;;;1.87;;
60032;SDS011;45905;50.570;10.428;2022-08-05T00:47:02;4.33;;;3.00;;
60032;SDS011;45905;50.570;10.428;2022-08-05T00:49:45;5.00;;;3.87;;
60032;SDS011;45905;50.570;10.428;2022-08-05T00:52:42;3.67;;;2.90;;
60032;SDS011;45905;50.570;10.428;2022-08-05T00:55:23;2.80;;;2.50;;
60032;SDS011;45905;50.570;10.428;2022-08-05T00:58:38;4.53;;;2.20;;
60032;SDS011;45905;50.570;10.428;2022-08-05T01:01:34;5.27;;;2.87;;
60032;SDS011;45905;50.570;10.428;2022-08-05T01:05:10;4.00;;;2.40;;
60032;SDS011;45905;50.570;10.428;2022-08-05T01:08:21;2.63;;;2.43;;
60032;SDS011;45905;50.570;10.428;2022-08-05T01:26:17;4.30;;;3.40;;
60032;SDS011;45905;50.570;10.428;2022-08-05T01:32:34;3.20;;;2.40;;
60032;SDS011;45905;50.570;10.428;2022-08-05T01:35:47;3.67;;;2.40;;
60032;SDS011;45905;50.570;10.428;2022-08-05T01:38:27;3.40;;;2.70;;
60032;SDS011;45905;50.570;10.428;2022-08-05T01:41:08;3.63;;;2.03;;
60032;SDS011;45905;50.570;10.428;2022-08-05T01:44:32;2.90;;;2.60;;
60032;SDS011;45905;50.570;10.428;2022-08-05T01:47:23;3.53;;;2.60;;
60032;SDS011;45905;50.570;10.428;2022-08-05T01:50:38;5.57;;;2.77;;
60032;SDS011;45905;50.570;10.428;2022-08-05T01:53:45;4.50;;;2.83;;
60032;SDS011;45905;50.570;10.428;2022-08-05T01:56:58;6.23;;;2.67;;
60032;SDS011;45905;50.570;10.428;2022-08-05T02:00:12;4.50;;;2.47;;
60032;SDS011;45905;50.570;10.428;2022-08-05T02:03:11;2.50;;;2.30;;
60032;SDS011;45905;50.570;10.428;2022-08-05T02:06:24;3.77;;;2.47;;
60032;SDS011;45905;50.570;10.428;2022-08-05T02:09:43;6.47;;;3.07;;
60032;SDS011;45905;50.570;10.428;2022-08-05T02:13:07;3.93;;;2.33;;
60032;SDS011;45905;50.570;10.428;2022-08-05T02:16:58;3.03;;;2.73;;
60032;SDS011;45905;50.570;10.428;2022-08-05T02:20:11;3.60;;;2.23;;
60032;SDS011;45905;50.570;10.428;2022-08-05T02:23:30;5.03;;;3.17;;
60032;SDS011;45905;50.570;10.428;2022-08-05T02:26:46;3.33;;;3.03;;
60032;SDS011;45905;50.570;10.428;2022-08-05T02:29:22;3.87;;;2.87;;
60032;SDS011;45905;50.570;10.428;2022-08-05T02:32:24;4.70;;;3.60;;
60032;SDS011;45905;50.570;10.428;2022-08-05T02:35:32;4.33;;;3.17;;
60032;SDS011;45905;50.570;10.428;2022-08-05T02:38:23;5.67;;;3.60;;
60032;SDS011;45905;50.570;10.428;2022-08-05T02:41:21;12.07;;;3.03;;
60032;SDS011;45905;50.570;10.428;2022-08-05T02:44:27;4.27;;;2.50;;
60032;SDS011;45905;50.570;10.428;2022-08-05T02:47:29;3.27;;;3.00;;
60032;SDS011;45905;50.570;10.428;2022-08-05T02:50:34;3.60;;;2.53;;
60032;SDS011;45905;50.570;10.428;2022-08-05T02:53:29;4.70;;;3.50;;
60032;SDS011;45905;50.570;10.428;2022-08-05T02:56:38;13.97;;;2.47;;
60032;SDS011;45905;50.570;10.428;2022-08-05T02:59:20;5.60;;;2.80;;
60032;SDS011;45905;50.570;10.428;2022-08-05T03:03:45;3.63;;;2.70;;
60032;SDS011;45905;50.570;10.428;2022-08-05T03:07:17;5.23;;;3.00;;
60032;SDS011;45905;50.570;10.428;2022-08-05T03:11:21;8.30;;;2.53;;
60032;SDS011;45905;50.570;10.428;2022-08-05T03:14:44;3.67;;;2.97;;
60032;SDS011;45905;50.570;10.428;2022-08-05T03:36:20;10.23;;;2.70;;
60032;SDS011;45905;50.570;10.428;2022-08-05T03:44:12;4.10;;;2.30;;
60032;SDS011;45905;50.570;10.428;2022-08-05T04:13:28;3.23;;;2.47;;
60032;SDS011;45905;50.570;10.428;2022-08-05T04:17:08;2.30;;;1.77;;
60032;SDS011;45905;50.570;10.428;2022-08-05T04:20:04;2.90;;;2.40;;
60032;SDS011;45905;50.570;10.428;2022-08-05T04:23:30;2.33;;;1.90;;
60032;SDS011;45905;50.570;10.428;2022-08-05T04:26:51;4.93;;;2.10;;
60032;SDS011;45905;50.570;10.428;2022-08-05T04:29:28;4.50;;;2.10;;
60032;SDS011;45905;50.570;10.428;2022-08-05T04:32:22;2.60;;;2.07;;
60032;SDS011;45905;50.570;10.428;2022-08-05T04:35:01;9.67;;;2.37;;
60032;SDS011;45905;50.570;10.428;2022-08-05T04:37:48;8.10;;;2.40;;
60032;SDS011;45905;50.570;10.428;2022-08-05T04:40:38;3.33;;;2.47;;
60032;SDS011;45905;50.570;10.428;2022-08-05T04:43:19;5.50;;;2.30;;
60032;SDS011;45905;50.570;10.428;2022-08-05T04:45:51;7.23;;;2.30;;
60032;SDS011;45905;50.570;10.428;2022-08-05T04:48:24;7.03;;;2.40;;
60032;SDS011;45905;50.570;10.428;2022-08-05T04:50:57;3.27;;;2.17;;
60032;SDS011;45905;50.570;10.428;2022-08-05T04:53:39;5.23;;;2.40;;
60032;SDS011;45905;50.570;10.428;2022-08-05T04:56:20;4.90;;;2.43;;
60032;SDS011;45905;50.570;10.428;2022-08-05T04:59:43;4.23;;;2.40;;
60032;SDS011;45905;50.570;10.428;2022-08-05T05:03:14;6.60;;;2.57;;
60032;SDS011;45905;50.570;10.428;2022-08-05T05:07:03;4.40;;;2.80;;
60032;SDS011;45905;50.570;10.428;2022-08-05T05:10:16;3.00;;;2.30;;
60032;SDS011;45905;50.570;10.428;2022-08-05T05:14:23;4.73;;;2.33;;
60032;SDS011;45905;50.570;10.428;2022-08-05T05:18:03;5.83;;;3.07;;
60032;SDS011;45905;50.570;10.428;2022-08-05T05:21:39;12.73;;;3.33;;
60032;SDS011;45905;50.570;10.428;2022-08-05T05:25:05;6.83;;;2.70;;
60032;SDS011;45905;50.570;10.428;2022-08-05T05:28:10;6.90;;;2.17;;
60032;SDS011;45905;50.570;10.428;2022-08-05T05:34:43;8.27;;;2.40;;
60032;SDS011;45905;50.570;10.428;2022-08-05T05:42:00;2.90;;;2.60;;
60032;SDS011;45905;50.570;10.428;2022-08-05T05:45:04;4.40;;;2.87;;
60032;SDS011;45905;50.570;10.428;2022-08-05T05:47:51;3.40;;;2.33;;
60032;SDS011;45905;50.570;10.428;2022-08-05T05:50:38;2.80;;;2.00;;
60032;SDS011;45905;50.570;10.428;2022-08-05T05:53:43;8.83;;;2.73;;
60032;SDS011;45905;50.570;10.428;2022-08-05T05:56:40;10.23;;;2.70;;
60032;SDS011;45905;50.570;10.428;2022-08-05T05:59:47;2.10;;;1.90;;
60032;SDS011;45905;50.570;10.428;2022-08-05T06:02:59;3.00;;;2.13;;
60032;SDS011;45905;50.570;10.428;2022-08-05T06:06:02;5.43;;;2.70;;
60032;SDS011;45905;50.570;10.428;2022-08-05T06:08:44;2.83;;;1.97;;
60032;SDS011;45905;50.570;10.428;2022-08-05T06:11:14;2.20;;;1.80;;
60032;SDS011;45905;50.570;10.428;2022-08-05T06:14:06;13.93;;;2.37;;
60032;SDS011;45905;50.570;10.428;2022-08-05T06:17:00;4.73;;;2.70;;
60032;SDS011;45905;50.570;10.428;2022-08-05T06:19:50;5.60;;;2.23;;
60032;SDS011;45905;50.570;10.428;2022-08-05T06:22:49;2.13;;;1.93;;
60032;SDS011;45905;50.570;10.428;2022-08-05T06:25:34;3.37;;;2.00;;
60032;SDS011;45905;50.570;10.428;2022-08-05T06:28:41;2.70;;;1.90;;
60032;SDS011;45905;50.570;10.428;2022-08-05T06:31:11;2.93;;;1.87;;
60032;SDS011;45905;50.570;10.428;2022-08-05T06:33:47;3.60;;;1.90;;
60032;SDS011;45905;50.570;10.428;2022-08-05T06:36:33;3.80;;;2.00;;
60032;SDS011;45905;50.570;10.428;2022-08-05T06:39:24;2.80;;;1.60;;
60032;SDS011;45905;50.570;10.428;2022-08-05T06:41:57;4.60;;;2.23;;
60032;SDS011;45905;50.570;10.428;2022-08-05T06:44:30;3.77;;;1.33;;
60032;SDS011;45905;50.570;10.428;2022-08-05T06:46:57;8.80;;;1.93;;
60032;SDS011;45905;50.570;10.428;2022-08-05T06:49:27;2.00;;;1.60;;
60032;SDS011;45905;50.570;10.428;2022-08-05T06:52:17;2.80;;;1.73;;
60032;SDS011;45905;50.570;10.428;2022-08-05T06:55:07;6.60;;;2.63;;
60032;SDS011;45905;50.570;10.428;2022-08-05T06:57:40;7.43;;;2.87;;
60032;SDS011;45905;50.570;10.428;2022-08-05T07:00:30;2.63;;;1.77;;
60032;SDS011;45905;50.570;10.428;2022-08-05T07:03:07;7.00;;;2.73;;
60032;SDS011;45905;50.570;10.428;2022-08-05T07:06:01;2.70;;;2.20;;
60032;SDS011;45905;50.570;10.428;2022-08-05T07:08:50;3.40;;;2.60;;
60032;SDS011;45905;50.570;10.428;2022-08-05T07:11:27;8.10;;;2.37;;
60032;SDS011;45905;50.570;10.428;2022-08-05T07:14:10;4.27;;;2.53;;
60032;SDS011;45905;50.570;10.428;2022-08-05T07:17:28;3.10;;;2.40;;
60032;SDS011;45905;50.570;10.428;2022-08-05T07:20:52;4.80;;;2.57;;
60032;SDS011;45905;50.570;10.428;2022-08-05T07:28:24;3.67;;;1.97;;
60032;SDS011;45905;50.570;10.428;2022-08-05T07:31:42;4.53;;;3.07;;
60032;SDS011;45905;50.570;10.428;2022-08-05T07:38:17;2.30;;;1.80;;
60032;SDS011;45905;50.570;10.428;2022-08-05T07:41:16;2.67;;;2.00;;
60032;SDS011;45905;50.570;10.428;2022-08-05T07:48:39;2.13;;;1.77;;
60032;SDS011;45905;50.570;10.428;2022-08-05T07:51:55;2.50;;;2.07;;
60032;SDS011;45905;50.570;10.428;2022-08-05T07:55:08;2.70;;;1.77;;
60032;SDS011;45905;50.570;10.428;2022-08-05T07:58:25;3.10;;;1.70;;
60032;SDS011;45905;50.570;10.428;2022-08-05T08:01:44;3.97;;;2.60;;
60032;SDS011;45905;50.570;10.428;2022-08-05T08:04:56;2.87;;;1.70;;
60032;SDS011;45905;50.570;10.428;2022-08-05T08:18:32;4.23;;;2.13;;
60032;SDS011;45905;50.570;10.428;2022-08-05T08:21:17;4.40;;;2.40;;
60032;SDS011;45905;50.570;10.428;2022-08-05T08:24:05;2.67;;;2.47;;
60032;SDS011;45905;50.570;10.428;2022-08-05T08:26:46;3.00;;;2.07;;
60032;SDS011;45905;50.570;10.428;2022-08-05T08:29:20;3.10;;;2.27;;
60032;SDS011;45905;50.570;10.428;2022-08-05T08:32:17;3.63;;;2.73;;
60032;SDS011;45905;50.570;10.428;2022-08-05T08:35:08;1.80;;;1.60;;
60032;SDS011;45905;50.570;10.428;2022-08-05T08:37:44;2.43;;;2.23;;
60032;SDS011;45905;50.570;10.428;2022-08-05T08:40:27;2.77;;;2.00;;
60032;SDS011;45905;50.570;10.428;2022-08-05T08:43:04;2.67;;;1.90;;
60032;SDS011;45905;50.570;10.428;2022-08-05T08:46:07;4.30;;;2.33;;
60032;SDS011;45905;50.570;10.428;2022-08-05T08:48:43;4.30;;;2.13;;
60032;SDS011;45905;50.570;10.428;2022-08-05T08:51:57;4.33;;;2.07;;
60032;SDS011;45905;50.570;10.428;2022-08-05T08:54:54;3.03;;;2.07;;
60032;SDS011;45905;50.570;10.428;2022-08-05T08:57:44;2.20;;;2.00;;
60032;SDS011;45905;50.570;10.428;2022-08-05T09:00:28;2.90;;;2.60;;
60032;SDS011;45905;50.570;10.428;2022-08-05T09:03:09;3.60;;;2.33;;
60032;SDS011;45905;50.570;10.428;2022-08-05T09:05:48;2.40;;;1.97;;
60032;SDS011;45905;50.570;10.428;2022-08-05T09:08:39;5.93;;;2.13;;
60032;SDS011;45905;50.570;10.428;2022-08-05T09:11:17;2.43;;;2.23;;
60032;SDS011;45905;50.570;10.428;2022-08-05T09:14:24;3.93;;;2.20;;
60032;SDS011;45905;50.570;10.428;2022-08-05T09:17:23;2.10;;;1.73;;
60032;SDS011;45905;50.570;10.428;2022-08-05T09:20:16;2.87;;;1.70;;
60032;SDS011;45905;50.570;10.428;2022-08-05T09:23:16;6.93;;;2.17;;
60032;SDS011;45905;50.570;10.428;2022-08-05T09:26:22;2.73;;;2.07;;
60032;SDS011;45905;50.570;10.428;2022-08-05T09:29:05;8.23;;;3.13;;
60032;SDS011;45905;50.570;10.428;2022-08-05T09:32:06;2.77;;;1.60;;
60032;SDS011;45905;50.570;10.428;2022-08-05T09:35:03;2.40;;;2.20;;
60032;SDS011;45905;50.570;10.428;2022-08-05T09:37:55;3.20;;;1.97;;
60032;SDS011;45905;50.570;10.428;2022-08-05T09:40:43;2.13;;;1.77;;
60032;SDS011;45905;50.570;10.428;2022-08-05T09:43:27;2.47;;;1.73;;
60032;SDS011;45905;50.570;10.428;2022-08-05T09:46:32;2.43;;;1.43;;
60032;SDS011;45905;50.570;10.428;2022-08-05T09:49:23;2.73;;;2.40;;
60032;SDS011;45905;50.570;10.428;2022-08-05T09:55:08;3.60;;;1.60;;
60032;SDS011;45905;50.570;10.428;2022-08-05T09:58:11;1.77;;;1.30;;
60032;SDS011;45905;50.570;10.428;2022-08-05T10:00:52;1.83;;;1.53;;
60032;SDS011;45905;50.570;10.428;2022-08-05T10:04:05;2.87;;;1.70;;
60032;SDS011;45905;50.570;10.428;2022-08-05T10:06:55;1.80;;;1.63;;
60032;SDS011;45905;50.570;10.428;2022-08-05T10:09:53;2.70;;;1.80;;
60032;SDS011;45905;50.570;10.428;2022-08-05T10:12:45;1.50;;;1.40;;
60032;SDS011;45905;50.570;10.428;2022-08-05T10:21:09;1.43;;;1.10;;
60032;SDS011;45905;50.570;10.428;2022-08-05T10:24:04;1.60;;;1.20;;
60032;SDS011;45905;50.570;10.428;2022-08-05T10:26:45;2.10;;;1.47;;
60032;SDS011;45905;50.570;10.428;2022-08-05T10:30:00;2.93;;;1.60;;
60032;SDS011;45905;50.570;10.428;2022-08-05T10:33:05;4.20;;;2.17;;
60032;SDS011;45905;50.570;10.428;2022-08-05T10:36:00;11.63;;;3.83;;
60032;SDS011;45905;50.570;10.428;2022-08-05T10:38:42;7.07;;;4.07;;
60032;SDS011;45905;50.570;10.428;2022-08-05T10:41:45;2.50;;;2.03;;
60032;SDS011;45905;50.570;10.428;2022-08-05T10:44:57;6.03;;;1.10;;
60032;SDS011;45905;50.570;10.428;2022-08-05T10:47:56;2.33;;;1.43;;
60032;SDS011;45905;50.570;10.428;2022-08-05T10:51:29;1.57;;;1.27;;
60032;SDS011;45905;50.570;10.428;2022-08-05T10:54:46;1.83;;;1.40;;
60032;SDS011;45905;50.570;10.428;2022-08-05T10:58:30;2.90;;;1.73;;
60032;SDS011;45905;50.570;10.428;2022-08-05T11:05:10;1.60;;;1.43;;
60032;SDS011;45905;50.570;10.428;2022-08-05T11:08:17;1.80;;;1.50;;
60032;SDS011;45905;50.570;10.428;2022-08-05T11:14:29;5.57;;;1.57;;
60032;SDS011;45905;50.570;10.428;2022-08-05T11:17:32;1.90;;;1.70;;
60032;SDS011;45905;50.570;10.428;2022-08-05T11:20:46;1.70;;;1.43;;
60032;SDS011;45905;50.570;10.428;2022-08-05T11:30:23;2.23;;;1.90;;
60032;SDS011;45905;50.570;10.428;2022-08-05T11:42:39;1.70;;;1.40;;
60032;SDS011;45905;50.570;10.428;2022-08-05T11:45:23;2.03;;;1.47;;
60032;SDS011;45905;50.570;10.428;2022-08-05T11:48:17;2.00;;;1.80;;
60032;SDS011;45905;50.570;10.428;2022-08-05T11:51:14;1.50;;;1.10;;
60032;SDS011;45905;50.570;10.428;2022-08-05T11:58:03;3.37;;;1.80;;
60032;SDS011;45905;50.570;10.428;2022-08-05T12:00:49;2.17;;;1.97;;
60032;SDS011;45905;50.570;10.428;2022-08-05T12:07:36;2.10;;;1.60;;
60032;SDS011;45905;50.570;10.428;2022-08-05T12:10:34;2.10;;;1.70;;
60032;SDS011;45905;50.570;10.428;2022-08-05T12:17:37;2.10;;;1.77;;
60032;SDS011;45905;50.570;10.428;2022-08-05T12:20:35;2.27;;;1.57;;
60032;SDS011;45905;50.570;10.428;2022-08-05T12:24:23;2.90;;;1.30;;
60032;SDS011;45905;50.570;10.428;2022-08-05T12:27:18;2.20;;;1.50;;
60032;SDS011;45905;50.570;10.428;2022-08-05T12:30:05;5.27;;;2.73;;
60032;SDS011;45905;50.570;10.428;2022-08-05T12:32:57;2.70;;;2.30;;
60032;SDS011;45905;50.570;10.428;2022-08-05T12:35:54;3.10;;;2.07;;
60032;SDS011;45905;50.570;10.428;2022-08-05T12:38:36;3.43;;;2.13;;
60032;SDS011;45905;50.570;10.428;2022-08-05T12:41:07;3.27;;;1.83;;
60032;SDS011;45905;50.570;10.428;2022-08-05T12:46:38;2.80;;;1.63;;
60032;SDS011;45905;50.570;10.428;2022-08-05T12:49:19;6.53;;;2.30;;
60032;SDS011;45905;50.570;10.428;2022-08-05T12:52:14;2.80;;;1.90;;
60032;SDS011;45905;50.570;10.428;2022-08-05T12:54:59;2.80;;;2.10;;
60032;SDS011;45905;50.570;10.428;2022-08-05T12:57:35;4.33;;;2.13;;
60032;SDS011;45905;50.570;10.428;2022-08-05T13:00:29;3.10;;;2.40;;
60032;SDS011;45905;50.570;10.428;2022-08-05T13:02:59;4.37;;;2.80;;
60032;SDS011;45905;50.570;10.428;2022-08-05T13:05:26;3.40;;;2.10;;
60032;SDS011;45905;50.570;10.428;2022-08-05T13:08:36;2.70;;;1.80;;
60032;SDS011;45905;50.570;10.428;2022-08-05T13:11:07;3.30;;;2.37;;
60032;SDS011;45905;50.570;10.428;2022-08-05T13:14:20;2.33;;;1.60;;
60032;SDS011;45905;50.570;10.428;2022-08-05T13:23:06;3.00;;;1.97;;
60032;SDS011;45905;50.570;10.428;2022-08-05T13:25:57;2.87;;;2.10;;
60032;SDS011;45905;50.570;10.428;2022-08-05T13:29:03;2.63;;;2.00;;
60032;SDS011;45905;50.570;10.428;2022-08-05T13:32:08;3.90;;;2.57;;
60032;SDS011;45905;50.570;10.428;2022-08-05T13:35:03;3.23;;;2.93;;
60032;SDS011;45905;50.570;10.428;2022-08-05T13:38:17;6.97;;;1.93;;
60032;SDS011;45905;50.570;10.428;2022-08-05T13:41:17;5.00;;;2.60;;
60032;SDS011;45905;50.570;10.428;2022-08-05T13:44:03;5.43;;;2.50;;
60032;SDS011;45905;50.570;10.428;2022-08-05T13:47:55;4.80;;;2.40;;
60032;SDS011;45905;50.570;10.428;2022-08-05T13:51:04;12.37;;;2.67;;
60032;SDS011;45905;50.570;10.428;2022-08-05T13:54:03;3.07;;;2.03;;
60032;SDS011;45905;50.570;10.428;2022-08-05T13:59:34;4.20;;;2.40;;
60032;SDS011;45905;50.570;10.428;2022-08-05T14:02:34;2.43;;;2.20;;
60032;SDS011;45905;50.570;10.428;2022-08-05T14:05:10;4.30;;;2.77;;
60032;SDS011;45905;50.570;10.428;2022-08-05T14:07:44;4.07;;;2.57;;
60032;SDS011;45905;50.570;10.428;2022-08-05T14:10:33;4.27;;;2.23;;
60032;SDS011;45905;50.570;10.428;2022-08-05T14:13:03;2.37;;;2.13;;
60032;SDS011;45905;50.570;10.428;2022-08-05T14:15:44;6.70;;;2.80;;
60032;SDS011;45905;50.570;10.428;2022-08-05T14:18:36;3.60;;;3.00;;
60032;SDS011;45905;50.570;10.428;2022-08-05T14:21:08;4.10;;;2.40;;
60032;SDS011;45905;50.570;10.428;2022-08-05T14:24:04;3.73;;;2.47;;
60032;SDS011;45905;50.570;10.428;2022-08-05T14:26:49;4.63;;;2.90;;
60032;SDS011;45905;50.570;10.428;2022-08-05T14:29:44;2.30;;;2.10;;
60032;SDS011;45905;50.570;10.428;2022-08-05T14:32:43;4.17;;;2.30;;
60032;SDS011;45905;50.570;10.428;2022-08-05T14:35:18;5.20;;;2.27;;
60032;SDS011;45905;50.570;10.428;2022-08-05T14:37:48;3.40;;;2.60;;
60032;SDS011;45905;50.570;10.428;2022-08-05T14:40:26;5.67;;;2.70;;
60032;SDS011;45905;50.570;10.428;2022-08-05T14:42:59;4.10;;;2.50;;
60032;SDS011;45905;50.570;10.428;2022-08-05T14:45:30;4.23;;;2.97;;
60032;SDS011;45905;50.570;10.428;2022-08-05T14:48:02;3.50;;;2.20;;
60032;SDS011;45905;50.570;10.428;2022-08-05T14:50:34;2.73;;;2.47;;
60032;SDS011;45905;50.570;10.428;2022-08-05T14:53:17;4.20;;;3.30;;
60032;SDS011;45905;50.570;10.428;2022-08-05T14:55:52;3.50;;;2.87;;
60032;SDS011;45905;50.570;10.428;2022-08-05T14:58:34;3.97;;;2.30;;
60032;SDS011;45905;50.570;10.428;2022-08-05T15:01:21;3.70;;;2.70;;
60032;SDS011;45905;50.570;10.428;2022-08-05T15:04:19;6.30;;;2.60;;
60032;SDS011;45905;50.570;10.428;2022-08-05T15:07:00;4.63;;;2.63;;
60032;SDS011;45905;50.570;10.428;2022-08-05T15:09:47;5.50;;;2.70;;
60032;SDS011;45905;50.570;10.428;2022-08-05T15:12:39;2.67;;;2.43;;
60032;SDS011;45905;50.570;10.428;2022-08-05T15:15:26;4.43;;;2.30;;
60032;SDS011;45905;50.570;10.428;2022-08-05T15:18:30;6.43;;;3.10;;
60032;SDS011;45905;50.570;10.428;2022-08-05T15:21:17;4.10;;;2.77;;
60032;SDS011;45905;50.570;10.428;2022-08-05T15:24:04;2.93;;;2.30;;
60032;SDS011;45905;50.570;10.428;2022-08-05T15:26:42;4.40;;;2.80;;
60032;SDS011;45905;50.570;10.428;2022-08-05T15:29:35;13.07;;;4.47;;
60032;SDS011;45905;50.570;10.428;2022-08-05T15:36:36;6.77;;;4.17;;
60032;SDS011;45905;50.570;10.428;2022-08-05T15:40:02;9.80;;;5.43;;
60032;SDS011;45905;50.570;10.428;2022-08-05T15:43:22;11.17;;;5.50;;
60032;SDS011;45905;50.570;10.428;2022-08-05T15:47:20;10.50;;;6.00;;
60032;SDS011;45905;50.570;10.428;2022-08-05T15:55:29;7.70;;;4.27;;
60032;SDS011;45905;50.570;10.428;2022-08-05T16:13:28;9.63;;;5.17;;
60032;SDS011;45905;50.570;10.428;2022-08-05T16:30:19;7.07;;;4.40;;
60032;SDS011;45905;50.570;10.428;2022-08-05T17:22:49;5.73;;;2.40;;
60032;SDS011;45905;50.570;10.428;2022-08-05T17:41:25;2.87;;;1.90;;
60032;SDS011;45905;50.570;10.428;2022-08-05T17:55:31;5.10;;;2.43;;
60032;SDS011;45905;50.570;10.428;2022-08-05T18:29:07;2.63;;;1.70;;
60032;SDS011;45905;50.570;10.428;2022-08-05T19:02:09;1.10;;;0.70;;
60032;SDS011;45905;50.570;10.428;2022-08-05T19:20:46;1.70;;;1.30;;
60032;SDS011;45905;50.570;10.428;2022-08-05T19:38:43;1.00;;;0.90;;
60032;SDS011;45905;50.570;10.428;2022-08-05T19:42:42;1.67;;;1.10;;
60032;SDS011;45905;50.570;10.428;2022-08-05T21:42:12;1.50;;;1.00;;
60032;SDS011;45905;50.570;10.428;2022-08-05T21:46:09;1.77;;;0.90;;
60032;SDS011;45905;50.570;10.428;2022-08-05T22:15:38;1.30;;;1.00;;
60032;SDS011;45905;50.570;10.428;2022-08-05T22:24:47;1.70;;;1.30;;
60032;SDS011;45905;50.570;10.428;2022-08-05T22:34:07;10.80;;;1.50;;
60032;SDS011;45905;50.570;10.428;2022-08-05T23:36:13;1.80;;;1.30;;
60032;SDS011;45905;50.570;10.428;2022-08-05T23:55:56;4.17;;;1.40;;
